Time;durP1;ratioP1;P1;durP2;ratioP2;P2;SDS_P1;SDS_P2;PMS_P1;PMS_P2;Temp;Humidity;BMP_temperature;BMP_pressure;BME280_temperature;BME280_humidity;BME280_pressure;Samples;Min_cycle;Max_cycle;Signal;HPM_P1;HPM_P2
2023/01/16 00:02:21;;;;;;;;;;;;;;;12.01;49.23;99421.53;4995767;27;109484;-68
2023/01/16 00:04:47;;;;;;;;;;;;;;;12.00;49.35;99406.44;4992948;27;127445;-67
2023/01/16 00:07:13;;;;;;;;;;;;;;;11.99;49.40;99410.25;4980493;27;99076;-68
2023/01/16 00:09:40;;;;;;;;;;;;;;;12.00;49.36;99405.63;4979837;27;122314;-68
2023/01/16 00:12:07;;;;;;;;;;;;;;;11.99;49.26;99404.84;4976212;27;98019;-68
2023/01/16 00:14:32;;;;;;;;;;;;;;;12.00;49.18;99402.94;4994040;27;98561;-67
2023/01/16 00:16:58;;;;;;;;;;;;;;;11.99;49.30;99396.75;4980499;27;125487;-68
2023/01/16 00:19:24;;;;;;;;;;;;;;;11.99;49.35;99391.34;4993308;27;97890;-68
2023/01/16 00:21:50;;;;;;;;;;;;;;;12.00;49.23;99392.13;4963637;27;129490;-68
2023/01/16 00:24:16;;;;;;;;;;;;;;;11.99;49.57;99382.44;4978880;27;126672;-68
2023/01/16 00:26:42;;;;;;;;;;;;;;;11.99;49.27;99383.25;4962919;27;126871;-68
2023/01/16 00:29:08;;;;;;;;;;;;;;;11.99;49.19;99380.53;4979851;27;98047;-68
2023/01/16 00:31:34;;;;;;;;;;;;;;;11.99;49.17;99374.34;4979014;27;121105;-68
2023/01/16 00:34:00;;;;;;;;;;;;;;;11.99;49.27;99382.44;4990330;27;128045;-67
2023/01/16 00:36:26;;;;;;;;;;;;;;;11.97;49.32;99374.63;4977940;27;125901;-67
2023/01/16 00:38:52;;;;;;;;;;;;;;;11.96;49.25;99370.34;4957320;27;122876;-67
2023/01/16 00:41:18;;;;;;;;;;;;;;;11.98;49.32;99370.03;4963610;27;113303;-68
2023/01/16 00:43:43;;;;;;;;;;;;;;;11.97;49.17;99371.13;4978594;27;98361;-68
2023/01/16 00:46:09;;;;;;;;;;;;;;;11.98;49.21;99373.50;4974810;27;127295;-68
2023/01/16 00:48:35;;;;;;;;;;;;;;;11.99;49.20;99363.53;4963399;27;98134;-67
2023/01/16 00:51:01;;;;;;;;;;;;;;;11.99;49.54;99372.44;4979614;27;127586;-67
2023/01/16 00:53:27;;;;;;;;;;;;;;;12.01;49.23;99366.72;5002299;27;123425;-67
2023/01/16 00:55:53;;;;;;;;;;;;;;;12.00;49.18;99367.84;4973165;27;126094;-68
2023/01/16 00:58:19;;;;;;;;;;;;;;;12.02;49.27;99357.50;4967337;27;122836;-68
2023/01/16 01:00:45;;;;;;;;;;;;;;;12.02;49.17;99357.50;4991051;27;126824;-68
2023/01/16 01:03:11;;;;;;;;;;;;;;;12.02;49.24;99361.03;5002627;27;129461;-68
2023/01/16 01:05:37;;;;;;;;;;;;;;;12.01;49.18;99351.31;4987516;27;112109;-67
2023/01/16 01:08:04;;;;;;;;;;;;;;;12.03;49.05;99359.94;4989205;27;97968;-68
2023/01/16 01:10:29;;;;;;;;;;;;;;;12.02;49.09;99361.03;5003071;27;128804;-68
2023/01/16 01:12:55;;;;;;;;;;;;;;;12.02;49.01;99352.09;4992453;27;125506;-67
2023/01/16 01:15:22;;;;;;;;;;;;;;;12.01;49.26;99347.81;4987248;27;130119;-68
2023/01/16 01:17:48;;;;;;;;;;;;;;;12.02;49.26;99344.00;5005442;27;97975;-67
2023/01/16 01:20:14;;;;;;;;;;;;;;;12.00;49.31;99343.53;4985857;27;98371;-68
2023/01/16 01:22:40;;;;;;;;;;;;;;;11.99;49.12;99342.72;4972704;27;126780;-67
2023/01/16 01:25:06;;;;;;;;;;;;;;;11.98;49.11;99335.72;4969085;27;112472;-67
2023/01/16 01:27:32;;;;;;;;;;;;;;;11.98;49.10;99340.31;4998794;27;117498;-68
2023/01/16 01:29:58;;;;;;;;;;;;;;;11.97;49.24;99330.63;4971167;27;128264;-68
2023/01/16 01:32:24;;;;;;;;;;;;;;;11.96;49.17;99332.53;4968132;27;127532;-68
2023/01/16 01:34:50;;;;;;;;;;;;;;;11.95;49.10;99330.94;4987601;27;128268;-68
2023/01/16 01:37:15;;;;;;;;;;;;;;;11.95;49.24;99336.34;4985042;27;122739;-68
2023/01/16 01:39:41;;;;;;;;;;;;;;;11.93;49.12;99330.44;4989955;27;125878;-68
2023/01/16 01:45:00;;;;;;;;;;;;;;;11.92;49.23;99330.75;4988020;27;98147;-68
2023/01/16 01:47:32;;;;;;;;;;;;;;;11.91;49.14;99337.25;5021057;27;114079;-67
2023/01/16 01:49:59;;;;;;;;;;;;;;;11.90;49.08;99332.94;4975615;27;98008;-67
2023/01/16 01:52:25;;;;;;;;;;;;;;;11.90;49.38;99338.34;4984872;27;123411;-68
2023/01/16 01:54:56;;;;;;;;;;;;;;;11.89;49.16;99332.13;4985083;27;98010;-68
2023/01/16 01:57:28;;;;;;;;;;;;;;;11.89;49.12;99339.44;4981444;27;98007;-68
2023/01/16 02:00:20;;;;;;;;;;;;;;;11.87;49.11;99334.34;4987904;27;98244;-68
2023/01/16 02:02:48;;;;;;;;;;;;;;;11.87;49.20;99337.06;4989515;27;99719;-68
2023/01/16 02:05:19;;;;;;;;;;;;;;;11.86;49.23;99331.94;4982664;27;120652;-68
2023/01/16 02:07:45;;;;;;;;;;;;;;;11.85;49.07;99341.94;4988499;27;97965;-68
2023/01/16 02:10:20;;;;;;;;;;;;;;;11.84;49.23;99331.47;4989047;27;127223;-68
2023/01/16 02:12:46;;;;;;;;;;;;;;;11.84;49.23;99336.84;4989555;27;98187;-68
2023/01/16 02:15:12;;;;;;;;;;;;;;;11.82;49.24;99329.00;4969681;27;115143;-68
2023/01/16 02:20:29;;;;;;;;;;;;;;;11.81;49.23;99322.03;4991847;27;98138;-68
2023/01/16 02:23:32;;;;;;;;;;;;;;;11.80;49.18;99320.44;4967176;27;130703;-68
2023/01/16 02:26:20;;;;;;;;;;;;;;;11.80;49.24;99309.63;5003618;27;99226;-69
2023/01/16 02:29:07;;;;;;;;;;;;;;;11.80;49.19;99305.03;5018537;27;97946;-68
2023/01/16 02:31:50;;;;;;;;;;;;;;;11.82;49.23;99298.50;5000061;27;97928;-68
2023/01/16 02:34:42;;;;;;;;;;;;;;;11.82;49.08;99295.81;5002209;27;113086;-68
2023/01/16 02:37:14;;;;;;;;;;;;;;;11.83;49.31;99289.31;4991095;27;97926;-67
2023/01/16 02:39:56;;;;;;;;;;;;;;;11.83;49.13;99289.31;5000049;27;102504;-68
2023/01/16 02:42:27;;;;;;;;;;;;;;;11.84;49.17;99274.75;5004275;27;130058;-68
2023/01/16 02:45:12;;;;;;;;;;;;;;;11.84;49.17;99274.75;5002019;27;99111;-68
2023/01/16 02:47:51;;;;;;;;;;;;;;;11.85;49.07;99269.03;4989350;27;98139;-68
2023/01/16 02:50:31;;;;;;;;;;;;;;;11.86;48.79;99272.53;4982016;27;99535;-68
2023/01/16 02:53:16;;;;;;;;;;;;;;;11.85;49.03;99255.53;4978653;27;112537;-68
2023/01/16 02:56:08;;;;;;;;;;;;;;;11.87;49.20;99260.63;4991173;27;123532;-68
2023/01/16 02:58:35;;;;;;;;;;;;;;;11.86;49.11;99262.53;4993317;27;100004;-68
2023/01/16 03:01:01;;;;;;;;;;;;;;;11.87;49.08;99258.75;4956700;27;120944;-68
2023/01/16 03:03:26;;;;;;;;;;;;;;;11.88;49.09;99246.84;4976857;27;128428;-68
2023/01/16 03:05:52;;;;;;;;;;;;;;;11.87;49.11;99249.81;4994318;27;98963;-68
2023/01/16 03:08:42;;;;;;;;;;;;;;;11.87;49.06;99247.94;4975457;27;113940;-68
2023/01/16 03:11:14;;;;;;;;;;;;;;;11.88;49.14;99246.84;4982895;27;108763;-68
2023/01/16 03:14:10;;;;;;;;;;;;;;;11.87;49.28;99239.84;4997271;27;99541;-68
2023/01/16 03:17:04;;;;;;;;;;;;;;;11.88;49.05;99235.25;4981085;27;98531;-68
2023/01/16 03:19:51;;;;;;;;;;;;;;;11.87;49.22;99225.53;4999386;27;98076;-68
2023/01/16 03:22:24;;;;;;;;;;;;;;;11.87;49.26;99225.53;4997481;27;117216;-68
2023/01/16 03:25:03;;;;;;;;;;;;;;;11.85;49.15;99223.13;4967014;27;98011;-68
2023/01/16 03:27:51;;;;;;;;;;;;;;;11.84;49.14;99218.06;4998586;27;98331;-68
2023/01/16 03:30:42;;;;;;;;;;;;;;;11.83;49.26;99214.56;4987278;27;98091;-68
2023/01/16 03:33:15;;;;;;;;;;;;;;;11.82;49.26;99206.72;4997397;27;119960;-68
2023/01/16 03:35:47;;;;;;;;;;;;;;;11.81;48.93;99205.94;4999453;27;99378;-68
2023/01/16 03:38:13;;;;;;;;;;;;;;;11.79;49.08;99203.53;4982473;27;113494;-68
2023/01/16 03:40:43;;;;;;;;;;;;;;;11.79;49.19;99202.75;4964140;27;113881;-68
2023/01/16 03:43:13;;;;;;;;;;;;;;;11.78;49.21;99209.22;4982224;27;106540;-68
2023/01/16 03:45:44;;;;;;;;;;;;;;;11.77;49.09;99200.34;4966171;27;122679;-68
2023/01/16 03:48:33;;;;;;;;;;;;;;;11.77;49.22;99194.94;4980765;27;98606;-68
2023/01/16 03:51:02;;;;;;;;;;;;;;;11.76;49.19;99204.16;4966934;27;124341;-68
2023/01/16 03:53:35;;;;;;;;;;;;;;;11.76;49.17;99198.75;4969131;27;111575;-68
2023/01/16 03:56:04;;;;;;;;;;;;;;;11.76;49.33;99200.66;4979094;27;98285;-68
2023/01/16 03:58:35;;;;;;;;;;;;;;;11.74;49.22;99190.13;4981318;27;98357;-68
2023/01/16 04:01:31;;;;;;;;;;;;;;;11.76;49.17;99185.25;4965556;27;127429;-69
2023/01/16 04:04:04;;;;;;;;;;;;;;;11.76;49.30;99179.06;4983666;27;98040;-68
2023/01/16 04:06:54;;;;;;;;;;;;;;;11.77;49.06;99177.94;4982070;27;98951;-67
2023/01/16 04:09:43;;;;;;;;;;;;;;;11.76;49.19;99169.06;4963088;27;109647;-68
2023/01/16 04:12:09;;;;;;;;;;;;;;;11.76;49.15;99169.06;4978103;27;124082;-67
2023/01/16 04:14:35;;;;;;;;;;;;;;;11.75;49.15;99163.94;4980412;27;123932;-67
2023/01/16 04:17:01;;;;;;;;;;;;;;;11.76;49.08;99157.47;4981145;27;127312;-68
2023/01/16 04:19:27;;;;;;;;;;;;;;;11.77;49.26;99159.03;4966147;27;124951;-68
2023/01/16 04:21:53;;;;;;;;;;;;;;;11.75;49.13;99145.88;4961967;27;127636;-68
2023/01/16 04:24:19;;;;;;;;;;;;;;;11.75;49.20;99137.78;4965634;27;123941;-68
2023/01/16 04:26:45;;;;;;;;;;;;;;;11.75;49.11;99139.66;4966596;27;128160;-68
2023/01/16 04:29:11;;;;;;;;;;;;;;;11.75;49.21;99142.34;4963514;27;99879;-68
2023/01/16 04:31:37;;;;;;;;;;;;;;;11.75;49.11;99142.34;4966055;27;127650;-65
2023/01/16 04:34:03;;;;;;;;;;;;;;;11.74;49.09;99140.75;4981594;27;105096;-68
2023/01/16 04:36:31;;;;;;;;;;;;;;;11.73;49.21;99133.78;4978101;27;128841;-68
2023/01/16 04:38:56;;;;;;;;;;;;;;;11.73;49.07;99129.16;4966503;27;99763;-68
2023/01/16 04:41:38;;;;;;;;;;;;;;;11.73;49.08;99122.97;4980259;27;127904;-68
2023/01/16 04:44:05;;;;;;;;;;;;;;;11.73;49.20;99120.28;4981766;27;97904;-67
2023/01/16 04:46:31;;;;;;;;;;;;;;;11.71;49.19;99115.19;4947736;27;119329;-67
2023/01/16 04:48:57;;;;;;;;;;;;;;;11.72;49.25;99107.88;4978108;27;126590;-68
2023/01/16 04:51:23;;;;;;;;;;;;;;;11.71;49.15;99100.88;4948042;27;99188;-67
2023/01/16 04:53:49;;;;;;;;;;;;;;;11.71;49.10;99096.31;4980782;27;99365;-68
2023/01/16 04:56:15;;;;;;;;;;;;;;;11.70;49.07;99094.69;4967702;27;127358;-67
2023/01/16 04:58:41;;;;;;;;;;;;;;;11.70;48.96;99093.88;4974257;27;107565;-68
2023/01/16 05:01:07;;;;;;;;;;;;;;;11.70;48.94;99091.19;4969390;27;128251;-68
2023/01/16 05:03:32;;;;;;;;;;;;;;;11.70;49.05;99099.28;4984718;27;122249;-68
2023/01/16 05:05:58;;;;;;;;;;;;;;;11.70;49.22;99088.50;4986102;27;127160;-68
2023/01/16 05:08:25;;;;;;;;;;;;;;;11.69;49.10;99095.00;4982509;27;129018;-67
2023/01/16 05:10:51;;;;;;;;;;;;;;;11.68;49.17;99088.00;4999068;27;97927;-67
2023/01/16 05:13:17;;;;;;;;;;;;;;;11.68;49.17;99085.31;4960445;27;121967;-67
2023/01/16 05:15:44;;;;;;;;;;;;;;;11.69;49.11;99081.50;4977639;27;125975;-68
2023/01/16 05:18:11;;;;;;;;;;;;;;;11.68;49.20;99075.31;4969809;27;100384;-68
2023/01/16 05:20:37;;;;;;;;;;;;;;;11.68;49.20;99075.31;4969369;27;98920;-68
2023/01/16 05:23:03;;;;;;;;;;;;;;;11.67;49.06;99065.63;4986064;27;116559;-68
2023/01/16 05:25:29;;;;;;;;;;;;;;;11.67;49.28;99065.63;4970528;27;98132;-68
2023/01/16 05:27:55;;;;;;;;;;;;;;;11.67;49.24;99059.41;4986323;27;98819;-68
2023/01/16 05:30:21;;;;;;;;;;;;;;;11.67;48.98;99059.41;4999891;27;98216;-67
2023/01/16 05:32:47;;;;;;;;;;;;;;;11.67;49.12;99051.31;4985138;27;121959;-67
2023/01/16 05:35:15;;;;;;;;;;;;;;;11.66;49.27;99044.31;5000675;27;128764;-68
2023/01/16 05:37:41;;;;;;;;;;;;;;;11.65;49.10;99040.84;5001617;27;98279;-68
2023/01/16 05:40:08;;;;;;;;;;;;;;;11.66;49.14;99036.22;4985851;27;115655;-69
2023/01/16 05:42:34;;;;;;;;;;;;;;;11.66;49.14;99031.63;4969536;27;98114;-68
2023/01/16 05:45:00;;;;;;;;;;;;;;;11.65;49.25;99026.53;4966535;27;128643;-68
2023/01/16 05:47:26;;;;;;;;;;;;;;;11.66;49.04;99026.22;4985092;27;98175;-68
2023/01/16 05:49:52;;;;;;;;;;;;;;;11.66;49.26;99028.13;4963864;27;126251;-68
2023/01/16 05:52:18;;;;;;;;;;;;;;;11.65;49.23;99040.03;4968488;27;107812;-68
2023/01/16 05:54:44;;;;;;;;;;;;;;;11.64;49.14;99041.94;4979247;27;114297;-68
2023/01/16 05:57:10;;;;;;;;;;;;;;;11.65;49.16;99045.44;4984993;27;128520;-68
2023/01/16 05:59:36;;;;;;;;;;;;;;;11.66;49.12;99047.03;4988103;27;98338;-68
2023/01/16 06:02:02;;;;;;;;;;;;;;;11.64;49.13;99036.53;4984226;27;120476;-68
2023/01/16 06:04:28;;;;;;;;;;;;;;;11.65;49.08;99037.34;4965261;27;130226;-68
2023/01/16 06:06:54;;;;;;;;;;;;;;;11.65;49.19;99040.03;4985207;27;127341;-68
2023/01/16 06:09:20;;;;;;;;;;;;;;;11.64;49.12;99031.16;4966842;27;98359;-68
2023/01/16 06:11:46;;;;;;;;;;;;;;;11.65;49.00;99023.84;4981376;27;122579;-67
2023/01/16 06:14:12;;;;;;;;;;;;;;;11.64;49.08;99022.25;4983556;27;126878;-68
2023/01/16 06:16:38;;;;;;;;;;;;;;;11.64;49.20;99014.16;4982868;27;130722;-68
2023/01/16 06:19:04;;;;;;;;;;;;;;;11.64;49.03;99011.47;5000822;27;127650;-68
2023/01/16 06:21:29;;;;;;;;;;;;;;;11.64;49.14;99008.75;4962650;27;123128;-67
2023/01/16 06:23:55;;;;;;;;;;;;;;;11.63;49.07;99007.97;4984646;27;105720;-68
2023/01/16 06:26:21;;;;;;;;;;;;;;;11.63;49.06;99004.44;4967676;27;98883;-68
2023/01/16 06:28:47;;;;;;;;;;;;;;;11.62;49.11;99008.25;4983396;27;110674;-67
2023/01/16 06:31:13;;;;;;;;;;;;;;;11.61;49.04;99007.47;4980201;27;99696;-68
2023/01/16 06:33:39;;;;;;;;;;;;;;;11.61;49.04;99003.97;4968351;27;126515;-67
2023/01/16 06:36:05;;;;;;;;;;;;;;;11.61;49.15;98993.19;4979917;27;128677;-67
2023/01/16 06:38:31;;;;;;;;;;;;;;;11.62;49.03;98986.66;4985162;27;99699;-69
2023/01/16 06:40:57;;;;;;;;;;;;;;;11.60;49.16;98978.09;4985700;27;121989;-68
2023/01/16 06:43:26;;;;;;;;;;;;;;;11.60;49.11;98970.81;4966590;27;129178;-69
2023/01/16 06:45:53;;;;;;;;;;;;;;;11.61;49.04;98966.19;4970212;27;117489;-68
2023/01/16 06:48:19;;;;;;;;;;;;;;;11.61;49.25;98960.78;5002013;27;111806;-68
2023/01/16 06:50:45;;;;;;;;;;;;;;;11.59;49.35;98953.00;5005997;27;118082;-68
2023/01/16 06:53:11;;;;;;;;;;;;;;;11.60;49.06;98951.91;4984942;27;128206;-68
2023/01/16 06:55:37;;;;;;;;;;;;;;;11.61;49.07;98958.09;4969804;27;97918;-68
2023/01/16 06:58:03;;;;;;;;;;;;;;;11.61;49.26;98958.09;4986116;27;123280;-68
2023/01/16 07:00:29;;;;;;;;;;;;;;;11.61;49.03;98953.50;4982898;27;121642;-68
2023/01/16 07:02:56;;;;;;;;;;;;;;;11.61;48.87;98955.41;4985830;27;121545;-69
2023/01/16 07:05:22;;;;;;;;;;;;;;;11.62;48.86;98951.59;4988219;27;100293;-68
2023/01/16 07:07:49;;;;;;;;;;;;;;;11.62;49.09;98957.78;4986765;27;98007;-68
2023/01/16 07:10:15;;;;;;;;;;;;;;;11.63;49.05;98958.56;4969483;27;98032;-68
2023/01/16 07:12:41;;;;;;;;;;;;;;;11.64;48.94;98965.59;4987880;27;106217;-68
2023/01/16 07:23:22;;;;;;;;;;;;;;;11.70;49.01;98957.03;5004559;27;98102;-68
2023/01/16 07:25:50;;;;;;;;;;;;;;;11.72;48.94;98957.53;4969961;27;98203;-67
2023/01/16 07:28:16;;;;;;;;;;;;;;;11.74;48.83;98951.78;5004699;27;98191;-67
2023/01/16 07:30:43;;;;;;;;;;;;;;;11.76;48.96;98955.78;4971660;27;124417;-68
2023/01/16 07:33:09;;;;;;;;;;;;;;;11.80;48.99;98953.25;4985400;27;104268;-68
2023/01/16 07:35:36;;;;;;;;;;;;;;;11.82;48.91;98950.25;4999141;27;98220;-68
2023/01/16 07:38:02;;;;;;;;;;;;;;;11.84;48.98;98956.16;4966404;27;98936;-67
2023/01/16 07:40:28;;;;;;;;;;;;;;;11.87;48.96;98950.94;4987879;27;98214;-67
2023/01/16 07:42:54;;;;;;;;;;;;;;;11.89;48.85;98942.53;4969870;27;119361;-67
2023/01/16 07:45:20;;;;;;;;;;;;;;;11.94;48.66;98943.16;4985756;27;128302;-67
2023/01/16 07:47:45;;;;;;;;;;;;;;;11.99;48.83;98936.84;4965100;27;130850;-67
2023/01/16 07:50:11;;;;;;;;;;;;;;;12.02;48.63;98942.44;4984936;27;122720;-67
2023/01/16 07:52:37;;;;;;;;;;;;;;;12.06;48.59;98929.06;4986473;27;130460;-67
2023/01/16 07:55:03;;;;;;;;;;;;;;;12.09;48.63;98920.34;4966161;27;128619;-67
2023/01/16 07:57:29;;;;;;;;;;;;;;;12.15;48.60;98918.31;4984318;27;97911;-67
2023/01/16 07:59:55;;;;;;;;;;;;;;;12.21;48.55;98911.63;4983231;27;103440;-67
2023/01/16 08:02:21;;;;;;;;;;;;;;;12.29;48.64;98913.53;4966989;27;131561;-68
2023/01/16 08:04:47;;;;;;;;;;;;;;;12.40;48.37;98906.72;4986283;27;98190;-67
2023/01/16 08:07:13;;;;;;;;;;;;;;;12.45;48.23;98900.38;4984739;27;126808;-67
2023/01/16 08:09:39;;;;;;;;;;;;;;;12.52;48.32;98889.88;4969336;27;104379;-67
2023/01/16 08:12:05;;;;;;;;;;;;;;;12.62;48.65;98886.09;4968123;27;126580;-67
2023/01/16 08:14:31;;;;;;;;;;;;;;;12.85;48.12;98876.69;4984678;27;115587;-68
2023/01/16 08:16:57;;;;;;;;;;;;;;;13.17;47.71;98872.63;4981644;27;127523;-68
2023/01/16 08:19:23;;;;;;;;;;;;;;;13.82;47.17;98859.00;5000836;27;99485;-68
2023/01/16 08:21:49;;;;;;;;;;;;;;;14.37;46.85;98849.88;4986314;27;100100;-68
2023/01/16 08:24:15;;;;;;;;;;;;;;;14.88;46.67;98850.56;4985065;27;127996;-68
2023/01/16 08:26:41;;;;;;;;;;;;;;;15.32;46.41;98843.53;4986066;27;99850;-68
2023/01/16 08:29:08;;;;;;;;;;;;;;;15.74;46.16;98837.16;4968448;27;97882;-68
2023/01/16 08:31:34;;;;;;;;;;;;;;;16.16;46.10;98824.06;4986201;27;113449;-68
2023/01/16 08:34:00;;;;;;;;;;;;;;;16.59;45.89;98822.59;4965797;27;127939;-68
2023/01/16 08:36:26;;;;;;;;;;;;;;;17.01;45.67;98816.72;4969441;27;128644;-69
2023/01/16 08:38:52;;;;;;;;;;;;;;;17.46;45.65;98805.41;4969790;27;104376;-69
2023/01/16 08:52:26;;;;;;;;;;;;;;;19.86;44.71;98765.16;4988468;27;98020;-69
2023/01/16 08:54:52;;;;;;;;;;;;;;;20.50;44.39;98759.69;4970264;27;99870;-68
2023/01/16 08:57:18;;;;;;;;;;;;;;;20.97;44.14;98754.69;4984506;27;124753;-68
2023/01/16 08:59:44;;;;;;;;;;;;;;;21.09;44.39;98752.44;4970051;27;111163;-68
2023/01/16 09:02:10;;;;;;;;;;;;;;;21.20;44.74;98749.00;4982959;27;127427;-68
2023/01/16 09:04:36;;;;;;;;;;;;;;;21.36;44.85;98746.81;4976846;27;97912;-68
2023/01/16 09:07:02;;;;;;;;;;;;;;;21.54;44.78;98736.00;4968580;27;98300;-68
2023/01/16 09:09:29;;;;;;;;;;;;;;;21.73;44.91;98730.22;4984924;27;100986;-68
2023/01/16 09:14:40;;;;;;;;;;;;;;;22.03;44.78;98731.94;4992864;27;98827;-69
2023/01/16 09:17:07;;;;;;;;;;;;;;;22.13;45.04;98731.22;4965207;27;127379;-68
2023/01/16 09:19:33;;;;;;;;;;;;;;;22.20;45.09;98719.47;4970311;27;97986;-68
2023/01/16 09:21:59;;;;;;;;;;;;;;;22.19;45.04;98721.44;4984885;27;103710;-68
2023/01/16 09:24:26;;;;;;;;;;;;;;;22.17;45.25;98721.03;4968068;27;101938;-69
2023/01/16 09:26:51;;;;;;;;;;;;;;;22.17;45.27;98723.00;4984047;27;98860;-69
2023/01/16 09:29:17;;;;;;;;;;;;;;;22.15;45.40;98704.16;4968085;27;121774;-69
2023/01/16 09:31:43;;;;;;;;;;;;;;;22.17;45.37;98709.28;4988804;27;99309;-69
2023/01/16 09:34:09;;;;;;;;;;;;;;;22.23;45.60;98696.75;4983056;27;129525;-68
2023/01/16 09:36:35;;;;;;;;;;;;;;;22.25;45.41;98694.41;4967899;27;126396;-68
2023/01/16 09:39:01;;;;;;;;;;;;;;;22.21;45.49;98691.66;4972221;27;98005;-69
2023/01/16 09:44:13;;;;;;;;;;;;;;;22.03;45.77;98685.28;5001630;27;98274;-68
2023/01/16 09:46:44;;;;;;;;;;;;;;;21.91;45.95;98691.13;4970119;27;98111;-69
2023/01/16 09:49:24;;;;;;;;;;;;;;;21.75;46.16;98677.75;4988238;27;108900;-68
2023/01/16 10:00:12;;;;;;;;;;;;;;;20.87;47.03;98646.66;4990725;27;98163;-69
2023/01/16 10:02:38;;;;;;;;;;;;;;;20.67;47.27;98637.91;4983569;27;118374;-68
2023/01/16 10:05:04;;;;;;;;;;;;;;;20.47;47.34;98629.06;4967188;27;100018;-68
2023/01/16 10:07:45;;;;;;;;;;;;;;;20.27;47.53;98635.91;4985011;27;98057;-67
2023/01/16 10:10:27;;;;;;;;;;;;;;;20.02;47.58;98619.25;5016950;27;98867;-68
2023/01/16 10:13:28;;;;;;;;;;;;;;;19.78;47.84;98618.59;4986685;27;100251;-68
2023/01/16 10:16:19;;;;;;;;;;;;;;;19.53;48.00;98609.28;5014117;27;98268;-69
2023/01/16 10:18:51;;;;;;;;;;;;;;;19.30;48.07;98615.63;5000725;27;98381;-68
2023/01/16 10:21:27;;;;;;;;;;;;;;;19.11;48.21;98599.38;4984690;27;97931;-67
2023/01/16 10:24:06;;;;;;;;;;;;;;;18.92;48.27;98596.75;4984477;27;107830;-67
2023/01/16 10:26:39;;;;;;;;;;;;;;;18.72;48.33;98596.06;5000266;27;97994;-67
2023/01/16 10:29:09;;;;;;;;;;;;;;;18.54;48.41;98588.34;5001493;27;98008;-68
2023/01/16 10:31:45;;;;;;;;;;;;;;;18.38;48.23;98587.69;4984367;27;97965;-67
2023/01/16 10:34:20;;;;;;;;;;;;;;;18.22;48.25;98573.41;4981230;27;123345;-68
2023/01/16 10:36:47;;;;;;;;;;;;;;;18.05;48.41;98561.81;4962740;27;98093;-67
2023/01/16 10:39:13;;;;;;;;;;;;;;;17.92;48.29;98563.16;4966684;27;111843;-68
2023/01/16 10:50:14;;;;;;;;;;;;;;;17.40;48.58;98540.72;4988185;27;99175;-68
2023/01/16 10:52:40;;;;;;;;;;;;;;;17.31;48.34;98542.09;4981624;27;98342;-67
2023/01/16 10:55:06;;;;;;;;;;;;;;;17.20;48.61;98541.84;5002065;27;128406;-68
2023/01/16 10:57:32;;;;;;;;;;;;;;;17.11;48.39;98533.91;4968789;27;97884;-67
2023/01/16 11:00:08;;;;;;;;;;;;;;;17.05;48.43;98534.53;4965266;27;120676;-68
2023/01/16 11:02:43;;;;;;;;;;;;;;;16.98;48.59;98523.50;4985017;27;106085;-67
2023/01/16 11:05:24;;;;;;;;;;;;;;;16.90;48.61;98511.69;4982599;27;122838;-67
2023/01/16 11:07:53;;;;;;;;;;;;;;;16.84;48.42;98513.88;4982220;27;98159;-67
2023/01/16 11:10:19;;;;;;;;;;;;;;;16.78;48.52;98501.72;4983048;27;115098;-67
2023/01/16 11:18:35;;;;;;;;;;;;;;;16.61;48.35;98478.38;4985272;27;98071;-67
2023/01/16 11:21:14;;;;;;;;;;;;;;;16.54;48.49;98461.91;4997081;27;120195;-67
2023/01/16 11:23:42;;;;;;;;;;;;;;;16.50;48.49;98462.97;4984560;27;115574;-67
2023/01/16 11:26:08;;;;;;;;;;;;;;;16.45;48.53;98461.31;4967212;27;98077;-67
2023/01/16 11:28:34;;;;;;;;;;;;;;;16.39;48.40;98449.94;4968982;27;98294;-67
2023/01/16 11:31:18;;;;;;;;;;;;;;;16.35;48.42;98442.84;4971521;27;99073;-69
2023/01/16 11:33:49;;;;;;;;;;;;;;;16.29;48.48;98436.88;5007019;27;113949;-67
2023/01/16 11:36:18;;;;;;;;;;;;;;;16.24;48.47;98426.28;4986379;27;98936;-68
2023/01/16 11:38:45;;;;;;;;;;;;;;;16.19;48.45;98421.91;4967703;27;100087;-67
2023/01/16 11:41:11;;;;;;;;;;;;;;;16.14;48.60;98419.44;5000799;27;99450;-67
2023/01/16 11:46:27;;;;;;;;;;;;;;;16.02;48.60;98400.53;4987871;27;99310;-67
2023/01/16 11:48:58;;;;;;;;;;;;;;;15.97;48.53;98394.59;4998476;27;98546;-68
2023/01/16 11:51:26;;;;;;;;;;;;;;;15.89;48.54;98388.97;4966965;27;120359;-67
2023/01/16 11:53:52;;;;;;;;;;;;;;;15.85;48.63;98384.63;4988136;27;98150;-67
2023/01/16 11:56:22;;;;;;;;;;;;;;;15.80;48.41;98377.53;4969504;27;99682;-67
2023/01/16 11:59:08;;;;;;;;;;;;;;;15.75;48.46;98374.28;4984650;27;98162;-68
2023/01/16 12:02:28;;;;;;;;;;;;;;;15.70;48.74;98369.91;5002435;27;98163;-67
2023/01/16 12:08:21;;;;;;;;;;;;;;;15.58;48.52;98353.66;5020041;27;98259;-67
2023/01/16 12:11:07;;;;;;;;;;;;;;;15.54;48.40;98350.88;5002764;27;98176;-68
2023/01/16 12:16:30;;;;;;;;;;;;;;;15.45;48.44;98328.53;4989787;27;98190;-67
2023/01/16 12:18:58;;;;;;;;;;;;;;;15.41;48.56;98325.75;5001678;27;98408;-68
2023/01/16 12:21:27;;;;;;;;;;;;;;;15.36;48.43;98325.19;5001668;27;97991;-69
2023/01/16 12:23:59;;;;;;;;;;;;;;;15.33;48.57;98315.84;4983744;27;120091;-67
2023/01/16 12:26:28;;;;;;;;;;;;;;;15.30;48.40;98321.97;5006100;27;98163;-68
2023/01/16 12:29:19;;;;;;;;;;;;;;;15.27;48.67;98306.38;4985385;27;98545;-67
2023/01/16 12:31:52;;;;;;;;;;;;;;;15.24;48.62;98293.50;5020001;27;125563;-68
2023/01/16 12:34:35;;;;;;;;;;;;;;;15.25;48.58;98281.53;4985471;27;125837;-67
2023/01/16 12:37:22;;;;;;;;;;;;;;;15.31;48.57;98282.03;4966337;27;97929;-68
2023/01/16 12:40:09;;;;;;;;;;;;;;;15.36;48.58;98282.56;5002434;27;98090;-67
2023/01/16 12:45:50;;;;;;;;;;;;;;;15.44;48.38;98267.22;5020409;27;97875;-68
2023/01/16 12:48:35;;;;;;;;;;;;;;;15.46;48.60;98262.25;5019037;27;97893;-67
2023/01/16 12:51:11;;;;;;;;;;;;;;;15.46;48.44;98256.81;4999699;27;98222;-68
2023/01/16 12:53:46;;;;;;;;;;;;;;;15.46;48.40;98263.03;5000973;27;125959;-67
2023/01/16 12:56:43;;;;;;;;;;;;;;;15.44;48.55;98257.19;4984802;27;122173;-67
2023/01/16 12:59:16;;;;;;;;;;;;;;;15.44;48.33;98243.59;5003119;27;97943;-67
2023/01/16 13:01:43;;;;;;;;;;;;;;;15.44;48.38;98240.06;4995454;27;127823;-67
2023/01/16 13:04:19;;;;;;;;;;;;;;;15.43;48.58;98243.94;4968616;27;98590;-67
2023/01/16 13:06:47;;;;;;;;;;;;;;;15.42;48.39;98237.72;4985529;27;98129;-67
2023/01/16 13:09:23;;;;;;;;;;;;;;;15.44;48.43;98226.50;4987890;27;99331;-67
2023/01/16 13:15:00;;;;;;;;;;;;;;;15.46;48.41;98224.25;5004704;27;97986;-68
2023/01/16 13:17:33;;;;;;;;;;;;;;;15.45;48.51;98218.03;5001112;27;99548;-68
2023/01/16 13:20:00;;;;;;;;;;;;;;;15.47;48.47;98221.16;4985917;27;112495;-67
2023/01/16 13:22:28;;;;;;;;;;;;;;;15.46;48.38;98216.09;4967881;27;129046;-67
2023/01/16 13:25:05;;;;;;;;;;;;;;;15.46;48.48;98213.38;4994224;27;98478;-67
2023/01/16 13:27:39;;;;;;;;;;;;;;;15.45;48.26;98207.16;4984618;27;104281;-67
2023/01/16 13:30:26;;;;;;;;;;;;;;;15.46;48.38;98211.44;4970899;27;98192;-67
2023/01/16 13:32:58;;;;;;;;;;;;;;;15.47;48.39;98193.22;4987127;27;98480;-68
2023/01/16 13:35:34;;;;;;;;;;;;;;;15.46;48.39;98194.38;4985114;27;114465;-66
2023/01/16 13:38:21;;;;;;;;;;;;;;;15.44;48.17;98197.47;4984259;27;98928;-67
2023/01/16 13:40:58;;;;;;;;;;;;;;;15.44;48.20;98185.78;5018447;27;97763;-67
2023/01/16 13:46:16;;;;;;;;;;;;;;;15.37;48.44;98181.00;4994204;27;98011;-67
2023/01/16 13:48:44;;;;;;;;;;;;;;;15.36;48.46;98190.28;4983287;27;118199;-67
2023/01/16 13:51:15;;;;;;;;;;;;;;;15.35;48.41;98177.06;4986858;27;98271;-67
2023/01/16 13:53:41;;;;;;;;;;;;;;;15.33;48.20;98173.94;4999082;27;98236;-67
2023/01/16 13:56:10;;;;;;;;;;;;;;;15.31;48.38;98173.47;4964806;27;99698;-67
2023/01/16 13:58:41;;;;;;;;;;;;;;;15.29;48.26;98170.31;4999213;27;98341;-67
2023/01/16 14:01:09;;;;;;;;;;;;;;;15.24;48.58;98165.97;4984508;27;97940;-66
2023/01/16 14:03:35;;;;;;;;;;;;;;;15.19;48.48;98152.66;4967060;27;98280;-66
2023/01/16 14:06:10;;;;;;;;;;;;;;;15.14;48.45;98151.03;4986341;27;99645;-67
2023/01/16 14:09:04;;;;;;;;;;;;;;;15.08;48.73;98154.34;5000110;27;98335;-67